Sensation — C6FM8 — position and weather

sailwx.info

Track history (hours):
 
Tides and Currents Weather Stations Pressure Air Temp Water Temp Dewpoint Dewpoint Depression Visibility Wind Speed Wind Dir Waves Ship Positions

Sensation

Last reported at 2019-Jul-20 13:30 UTC. Time now 2019-Jul-20 13:59 UTC.
Position N 25°47' W 080°10'.

Type: Ship. MMSI: 309697000.

Date/timePositionNaut miles runAvg speedWind from/ knotsBaromVisibWave heightAir tempDewpointWater temp
2019-Jul-20 13:30N 25°47' W 080°10'0 0.0
2019-Jul-20 13:00N 25°47' W 080°10'0 0.0
2019-Jul-20 12:30N 25°47' W 080°10'0 0.0
2019-Jul-20 12:00N 25°47' W 080°10'0 0.0
2019-Jul-20 11:30N 25°47' W 080°10'0 0.0
2019-Jul-20 11:01N 25°47' W 080°10'0 0.0
2019-Jul-20 10:30N 25°47' W 080°10'1 1.9
2019-Jul-20 10:00N 25°47' W 080°11'3 6.6
2019-Jul-20 09:30N 25°46' W 080°08'510.7
2019-Jul-20 09:00N 25°48' W 080°02'611.0
2019-Jul-20 08:30N 25°47' W 079°56'815.6
2019-Jul-20 08:00N 25°47' W 079°47'713.5
2019-Jul-20 07:30N 25°50' W 079°41'713.7
2019-Jul-20 07:00N 25°56' W 079°37'1114.3
2019-Jul-20 06:13N 26°04' W 079°29'314.5
2019-Jul-20 06:00N 26°07' W 079°27'814.6
2019-Jul-20 05:29N 26°14' W 079°23'714.1
2019-Jul-20 05:00N 26°16' W 079°16'  
2019-Jul-17 03:00N 25°36' W 076°30'151 5.7 130 / 121021.010.8 29.026.328.0
2019-Jul-16 00:41N 26°16' W 079°12'314.2
2019-Jul-16 00:30N 26°16' W 079°15'713.7
2019-Jul-16 00:00N 26°14' W 079°22'816.1
2019-Jul-15 23:30N 26°08' W 079°28'815.2
2019-Jul-15 23:00N 26°02' W 079°33'713.9
2019-Jul-15 22:30N 25°57' W 079°38'713.6
2019-Jul-15 22:00N 25°52' W 079°44'713.7
2019-Jul-15 21:30N 25°50' W 079°51'815.0
2019-Jul-15 21:00N 25°48' W 079°59'611.5
2019-Jul-15 20:30N 25°46' W 080°05'4 8.7
2019-Jul-15 20:00N 25°47' W 080°10'0 0.3
2019-Jul-15 19:30N 25°47' W 080°10'0 0.0
2019-Jul-15 18:58N 25°47' W 080°10'0 0.0
2019-Jul-15 18:17N 25°47' W 080°10'0 0.0
2019-Jul-15 17:58N 25°47' W 080°10'0 0.0
2019-Jul-15 17:28N 25°47' W 080°10'0 0.0
2019-Jul-15 16:51N 25°47' W 080°10'0 0.0
2019-Jul-15 16:21N 25°47' W 080°10'0 0.0
2019-Jul-15 15:54N 25°47' W 080°10'0 0.0
2019-Jul-15 15:24N 25°47' W 080°10'0 0.0
2019-Jul-15 14:54N 25°47' W 080°10'0 0.0
2019-Jul-15 14:24N 25°47' W 080°10'0 0.0
2019-Jul-15 13:54N 25°47' W 080°10'0 0.0
2019-Jul-15 13:24N 25°47' W 080°10'0 0.0
2019-Jul-15 12:57N 25°47' W 080°10'0 0.0
2019-Jul-15 12:27N 25°47' W 080°10'0 0.0
2019-Jul-15 11:57N 25°47' W 080°10'0 0.0
2019-Jul-15 11:30N 25°47' W 080°10'0 0.0
2019-Jul-15 10:54N 25°47' W 080°10'0 0.4
2019-Jul-15 10:30N 25°47' W 080°10'5 9.0
2019-Jul-15 10:00N 25°46' W 080°05'4 7.8
2019-Jul-15 09:30N 25°45' W 080°01'612.8
2019-Jul-15 09:00N 25°40' W 079°57'1019.3
2019-Jul-15 08:30N 25°30' W 079°57'1019.7
2019-Jul-15 08:00N 25°20' W 079°57'47516.3
2019-Jul-14 02:46N 20°40' W 086°54'520.2
2019-Jul-14 02:30N 20°35' W 086°57'712.7
2019-Jul-14 01:59N 20°29' W 086°59'0 0.4
2019-Jul-14 01:29N 20°29' W 086°59'0 0.0
2019-Jul-14 00:59N 20°29' W 086°59'0 0.0
2019-Jul-14 00:29N 20°29' W 086°59'0 0.0
2019-Jul-13 23:59N 20°29' W 086°59'0 0.0
2019-Jul-13 23:30N 20°29' W 086°59'0 0.0
2019-Jul-13 22:58N 20°29' W 086°59'0 0.0
2019-Jul-13 22:28N 20°29' W 086°59'0 0.0
2019-Jul-13 21:58N 20°29' W 086°59'0 0.0
2019-Jul-13 21:28N 20°29' W 086°59'0 0.0
2019-Jul-13 20:58N 20°29' W 086°59'0 0.0
2019-Jul-13 20:25N 20°29' W 086°59'0 0.0
2019-Jul-13 19:58N 20°29' W 086°59'0 0.0
2019-Jul-13 19:28N 20°29' W 086°59'0 0.0
2019-Jul-13 18:58N 20°29' W 086°59'0 0.0
2019-Jul-13 18:28N 20°29' W 086°59'0 0.0
2019-Jul-13 17:58N 20°29' W 086°59'0 0.0
2019-Jul-13 17:30N 20°29' W 086°59'0 0.0
2019-Jul-13 17:00N 20°29' W 086°59'0 0.0
2019-Jul-13 16:27N 20°29' W 086°59'0 0.0
2019-Jul-13 16:00N 20°29' W 086°59'1 1.6
2019-Jul-13 15:30N 20°29' W 086°59'4 8.6
2019-Jul-13 15:00N 20°34' W 086°58'26619.0
2019-Jul-13 01:00N 23°24' W 083°18'105 8.1 090 / 241015.010.8 29.027.728.0
2019-Jul-12 12:00N 24°30' W 081°48'14 5.4 160 / 81015.0 5.4 28.025.329.0
2019-Jul-12 09:26N 24°18' W 081°41'613.5
2019-Jul-12 09:00N 24°18' W 081°35'8412.0
2019-Jul-12 02:00N 24°42' W 080°06'3213.6 140 / 131017.010.8 28.026.729.0
2019-Jul-11 23:38N 25°10' W 079°50'211.6
2019-Jul-11 23:30N 25°12' W 079°49'611.7
2019-Jul-11 23:00N 25°18' W 079°47'611.6
2019-Jul-11 22:30N 25°23' W 079°47'611.4
2019-Jul-11 22:00N 25°29' W 079°47'611.4
2019-Jul-11 21:30N 25°34' W 079°49'612.9
2019-Jul-11 21:00N 25°39' W 079°54'713.3
2019-Jul-11 20:30N 25°43' W 079°60'511.0
2019-Jul-11 20:00N 25°46' W 080°05'5 9.0
2019-Jul-11 19:30N 25°46' W 080°10'1 1.1
2019-Jul-11 19:00N 25°47' W 080°10'0 0.0
2019-Jul-11 18:30N 25°47' W 080°10'0 0.0
2019-Jul-11 18:00N 25°47' W 080°10'0 0.0
2019-Jul-11 17:21N 25°47' W 080°10'0 0.0
2019-Jul-11 17:00N 25°47' W 080°10'0 0.0
2019-Jul-11 16:21N 25°47' W 080°10'0 0.0
2019-Jul-11 15:57N 25°47' W 080°10'0 0.0
2019-Jul-11 15:27N 25°47' W 080°10'0 0.0
2019-Jul-11 14:54N 25°47' W 080°10'0 0.0
2019-Jul-11 14:27N 25°47' W 080°10'613.0
2019-Jul-11 14:00N 25°42' W 080°06'6124.1 160 / 151018.010.8 29.026.329.0
2019-Jul-11 13:57N 25°47' W 080°10'0 0.0
2019-Jul-11 13:27N 25°47' W 080°10'0 0.0
2019-Jul-11 12:57N 25°47' W 080°10'0 0.0
2019-Jul-11 12:27N 25°47' W 080°10'0 0.0
2019-Jul-11 11:59N 25°47' W 080°10'0 0.0
2019-Jul-11 11:29N 25°47' W 080°10'0 0.0
2019-Jul-11 10:59N 25°47' W 080°10'0 0.0
2019-Jul-11 10:29N 25°47' W 080°10'1 1.4
2019-Jul-11 10:00N 25°47' W 080°11'2 3.9
2019-Jul-11 09:30N 25°46' W 080°09'510.8
2019-Jul-11 09:00N 25°47' W 080°03'510.4
2019-Jul-11 08:30N 25°47' W 079°57'612.5
2019-Jul-11 08:00N 25°47' W 079°50'714.6
2019-Jul-11 07:30N 25°48' W 079°42'613.1
2019-Jul-11 07:00N 25°53' W 079°38'1113.2
2019-Jul-11 06:10N 26°02' W 079°30'513.5
2019-Jul-11 05:50N 26°06' W 079°28'513.9
2019-Jul-11 05:30N 26°10' W 079°25'714.3
2019-Jul-11 04:59N 26°16' W 079°20'815.9
2019-Jul-11 04:30N 26°16' W 079°12'6819.4
2019-Jul-11 01:00N 25°54' W 078°00'   180 / 151018.0 28.025.329.0
Track history (hours):
 
Tides and Currents Weather Stations Pressure Air Temp Water Temp Dewpoint Dewpoint Depression Visibility Wind Speed Wind Dir Waves Ship Positions

Sensation

Last reported at 2019-Jul-20 13:30 UTC. Time now 2019-Jul-20 13:59 UTC.
Position N 25°47' W 080°10'.

Type: Ship. MMSI: 309697000.

Date/timePositionNaut miles runAvg speedWind from/ knotsBaromVisibWave heightAir tempDewpointWater temp
2019-Jul-20 13:30N 25°47' W 080°10'0 0.0
2019-Jul-20 13:00N 25°47' W 080°10'0 0.0
2019-Jul-20 12:30N 25°47' W 080°10'0 0.0
2019-Jul-20 12:00N 25°47' W 080°10'0 0.0
2019-Jul-20 11:30N 25°47' W 080°10'0 0.0
2019-Jul-20 11:01N 25°47' W 080°10'0 0.0
2019-Jul-20 10:30N 25°47' W 080°10'1 1.9
2019-Jul-20 10:00N 25°47' W 080°11'3 6.6
2019-Jul-20 09:30N 25°46' W 080°08'510.7
2019-Jul-20 09:00N 25°48' W 080°02'611.0
2019-Jul-20 08:30N 25°47' W 079°56'815.6
2019-Jul-20 08:00N 25°47' W 079°47'713.5
2019-Jul-20 07:30N 25°50' W 079°41'713.7
2019-Jul-20 07:00N 25°56' W 079°37'1114.3
2019-Jul-20 06:13N 26°04' W 079°29'314.5
2019-Jul-20 06:00N 26°07' W 079°27'814.6
2019-Jul-20 05:29N 26°14' W 079°23'714.1
2019-Jul-20 05:00N 26°16' W 079°16'  
2019-Jul-17 03:00N 25°36' W 076°30'151 5.7 130 / 121021.010.8 29.026.328.0
2019-Jul-16 00:41N 26°16' W 079°12'314.2
2019-Jul-16 00:30N 26°16' W 079°15'713.7
2019-Jul-16 00:00N 26°14' W 079°22'816.1
2019-Jul-15 23:30N 26°08' W 079°28'815.2
2019-Jul-15 23:00N 26°02' W 079°33'713.9
2019-Jul-15 22:30N 25°57' W 079°38'713.6
2019-Jul-15 22:00N 25°52' W 079°44'713.7
2019-Jul-15 21:30N 25°50' W 079°51'815.0
2019-Jul-15 21:00N 25°48' W 079°59'611.5
2019-Jul-15 20:30N 25°46' W 080°05'4 8.7
2019-Jul-15 20:00N 25°47' W 080°10'0 0.3
2019-Jul-15 19:30N 25°47' W 080°10'0 0.0
2019-Jul-15 18:58N 25°47' W 080°10'0 0.0
2019-Jul-15 18:17N 25°47' W 080°10'0 0.0
2019-Jul-15 17:58N 25°47' W 080°10'0 0.0
2019-Jul-15 17:28N 25°47' W 080°10'0 0.0
2019-Jul-15 16:51N 25°47' W 080°10'0 0.0
2019-Jul-15 16:21N 25°47' W 080°10'0 0.0
2019-Jul-15 15:54N 25°47' W 080°10'0 0.0
2019-Jul-15 15:24N 25°47' W 080°10'0 0.0
2019-Jul-15 14:54N 25°47' W 080°10'0 0.0
2019-Jul-15 14:24N 25°47' W 080°10'0 0.0
2019-Jul-15 13:54N 25°47' W 080°10'0 0.0
2019-Jul-15 13:24N 25°47' W 080°10'0 0.0
2019-Jul-15 12:57N 25°47' W 080°10'0 0.0
2019-Jul-15 12:27N 25°47' W 080°10'0 0.0
2019-Jul-15 11:57N 25°47' W 080°10'0 0.0
2019-Jul-15 11:30N 25°47' W 080°10'0 0.0
2019-Jul-15 10:54N 25°47' W 080°10'0 0.4
2019-Jul-15 10:30N 25°47' W 080°10'5 9.0
2019-Jul-15 10:00N 25°46' W 080°05'4 7.8
2019-Jul-15 09:30N 25°45' W 080°01'612.8
2019-Jul-15 09:00N 25°40' W 079°57'1019.3
2019-Jul-15 08:30N 25°30' W 079°57'1019.7
2019-Jul-15 08:00N 25°20' W 079°57'47516.3
2019-Jul-14 02:46N 20°40' W 086°54'520.2
2019-Jul-14 02:30N 20°35' W 086°57'712.7
2019-Jul-14 01:59N 20°29' W 086°59'0 0.4
2019-Jul-14 01:29N 20°29' W 086°59'0 0.0
2019-Jul-14 00:59N 20°29' W 086°59'0 0.0
2019-Jul-14 00:29N 20°29' W 086°59'0 0.0
2019-Jul-13 23:59N 20°29' W 086°59'0 0.0
2019-Jul-13 23:30N 20°29' W 086°59'0 0.0
2019-Jul-13 22:58N 20°29' W 086°59'0 0.0
2019-Jul-13 22:28N 20°29' W 086°59'0 0.0
2019-Jul-13 21:58N 20°29' W 086°59'0 0.0
2019-Jul-13 21:28N 20°29' W 086°59'0 0.0
2019-Jul-13 20:58N 20°29' W 086°59'0 0.0
2019-Jul-13 20:25N 20°29' W 086°59'0 0.0
2019-Jul-13 19:58N 20°29' W 086°59'0 0.0
2019-Jul-13 19:28N 20°29' W 086°59'0 0.0
2019-Jul-13 18:58N 20°29' W 086°59'0 0.0
2019-Jul-13 18:28N 20°29' W 086°59'0 0.0
2019-Jul-13 17:58N 20°29' W 086°59'0 0.0
2019-Jul-13 17:30N 20°29' W 086°59'0 0.0
2019-Jul-13 17:00N 20°29' W 086°59'0 0.0
2019-Jul-13 16:27N 20°29' W 086°59'0 0.0
2019-Jul-13 16:00N 20°29' W 086°59'1 1.6
2019-Jul-13 15:30N 20°29' W 086°59'4 8.6
2019-Jul-13 15:00N 20°34' W 086°58'26619.0
2019-Jul-13 01:00N 23°24' W 083°18'105 8.1 090 / 241015.010.8 29.027.728.0
2019-Jul-12 12:00N 24°30' W 081°48'14 5.4 160 / 81015.0 5.4 28.025.329.0
2019-Jul-12 09:26N 24°18' W 081°41'613.5
2019-Jul-12 09:00N 24°18' W 081°35'8412.0
2019-Jul-12 02:00N 24°42' W 080°06'3213.6 140 / 131017.010.8 28.026.729.0
2019-Jul-11 23:38N 25°10' W 079°50'211.6
2019-Jul-11 23:30N 25°12' W 079°49'611.7
2019-Jul-11 23:00N 25°18' W 079°47'611.6
2019-Jul-11 22:30N 25°23' W 079°47'611.4
2019-Jul-11 22:00N 25°29' W 079°47'611.4
2019-Jul-11 21:30N 25°34' W 079°49'612.9
2019-Jul-11 21:00N 25°39' W 079°54'713.3
2019-Jul-11 20:30N 25°43' W 079°60'511.0
2019-Jul-11 20:00N 25°46' W 080°05'5 9.0
2019-Jul-11 19:30N 25°46' W 080°10'1 1.1
2019-Jul-11 19:00N 25°47' W 080°10'0 0.0
2019-Jul-11 18:30N 25°47' W 080°10'0 0.0
2019-Jul-11 18:00N 25°47' W 080°10'0 0.0
2019-Jul-11 17:21N 25°47' W 080°10'0 0.0
2019-Jul-11 17:00N 25°47' W 080°10'0 0.0
2019-Jul-11 16:21N 25°47' W 080°10'0 0.0
2019-Jul-11 15:57N 25°47' W 080°10'0 0.0
2019-Jul-11 15:27N 25°47' W 080°10'0 0.0
2019-Jul-11 14:54N 25°47' W 080°10'0 0.0
2019-Jul-11 14:27N 25°47' W 080°10'613.0
2019-Jul-11 14:00N 25°42' W 080°06'6124.1 160 / 151018.010.8 29.026.329.0
2019-Jul-11 13:57N 25°47' W 080°10'0 0.0
2019-Jul-11 13:27N 25°47' W 080°10'0 0.0
2019-Jul-11 12:57N 25°47' W 080°10'0 0.0
2019-Jul-11 12:27N 25°47' W 080°10'0 0.0
2019-Jul-11 11:59N 25°47' W 080°10'0 0.0
2019-Jul-11 11:29N 25°47' W 080°10'0 0.0
2019-Jul-11 10:59N 25°47' W 080°10'0 0.0
2019-Jul-11 10:29N 25°47' W 080°10'1 1.4
2019-Jul-11 10:00N 25°47' W 080°11'2 3.9
2019-Jul-11 09:30N 25°46' W 080°09'510.8
2019-Jul-11 09:00N 25°47' W 080°03'510.4
2019-Jul-11 08:30N 25°47' W 079°57'612.5
2019-Jul-11 08:00N 25°47' W 079°50'714.6
2019-Jul-11 07:30N 25°48' W 079°42'613.1
2019-Jul-11 07:00N 25°53' W 079°38'1113.2
2019-Jul-11 06:10N 26°02' W 079°30'513.5
2019-Jul-11 05:50N 26°06' W 079°28'513.9
2019-Jul-11 05:30N 26°10' W 079°25'714.3
2019-Jul-11 04:59N 26°16' W 079°20'815.9
2019-Jul-11 04:30N 26°16' W 079°12'6819.4
2019-Jul-11 01:00N 25°54' W 078°00'   180 / 151018.0 28.025.329.0

Dump ship's entire track history